MKJPTNCM

Guest
Details From MKJP - Norman Manley Intl
To TNCM - St Maarten - Princess Juliana Intl
Flight Number -
Tags Generated
Created
Modified
Stats Distance 781 nm / 1,447 km
Max Altitude 0 ft / 0 m
Waypoints 5
Social Downloads 3
Likes 0
Share VATSIM

Download

Looking for another format? Having issues loading an existing format? Contact us
Advertisement - Login to hide

Notes

Generated

Route

MKJP KENOK APPOL PJM02 TNCM

ID Type Via Altitude Latitude Longitude Leg Dist Tot Dist Heading (true) Name
O MKJP APT - 0 ft / 0 m 17.94026˚ -76.79945˚ - 0 nm - -
KENOK FIX - 0 ft / 0 m 18.13561˚ -71.90033˚ 280 nm 280 nm 87° / 88° -
APPOL FIX - 0 ft / 0 m 18.08123˚ -67.56130˚ 247 nm 527 nm 90° / 91° -
PJM02 FIX - 0 ft / 0 m 18.03461˚ -63.15309˚ 251 nm 779 nm 90° / 91° -
O TNCM APT - 0 ft / 0 m 18.03937˚ -63.11961˚ 1 nm 781 nm 81° / 82° -

Altitude Profile

Advertisement - Login to hide

Weather


0- 5 10 15 20 25 30 35+ Temperature / ° C

Clouds and Precipitation
Forecast for 2017-12-11 00:00 UTC. Updated an hour ago

Ground ~20,000 ft ~40,000 ft Winds

MKJP

Details ICAO MKJP (KIN)
Name Norman Manley Intl
Region Jamaica
Timezone Unknown (UTC+0.0)
Stats Elevation 10 ft / 3 m (AMSL)
Location 17.935665° -76.787560°
Runways 1
Magnetic Variation 7.540° W

METAR

MKJP 110000Z 35004KT 9999 FEW018 FEW020CB SCT036 BKN100 27/24 Q1013

Decode

TAF

TAF MKJP 102315Z 1100/1124 36006KT 9999 SCT020 BKN036 PROB30 TEMPO 1105/1109 6000 SHRA BECMG 1112/1114 VRB08KT SCT022 TEMPO 1118/1122 7000 SHRA

Decode

Departure Runways

ID Width Length Bearing (true) Bearing (mag) Surface Threshold Offset Overrun Length
12 150 ft / 46 m 8,912 ft / 2,717 m 112.09° 119.63° Asphalt 0 ft / 0 m 0 ft / 0 m
30 150 ft / 46 m 8,912 ft / 2,717 m 292.10° 299.64° Asphalt 0 ft / 0 m 0 ft / 0 m

TNCM

Details ICAO TNCM (SXM)
Name St Maarten - Princess Juliana Intl
Region Caribbean Netherlands, Aruba, Curaçao, Sint Maarten
Timezone Unknown (UTC+0.0)
Stats Elevation 12 ft / 4 m (AMSL)
Location 18.040889° -63.108974°
Runways 1
Magnetic Variation 14.325° W

METAR

TNCM 110000Z 04015KT 9999 -SHRA FEW018 SCT035 24/22 Q1015 A2999 TEMPO SHRA

Decode

TAF

TAF TNCM 102320Z 1100/1124 07007KT P6SM VCSH SCT018 SCT035 FM111000 08009KT P6SM FEW018 FEW040 FM111600 09010KT P6SM VCSH SCT020 BKN040

Decode

Destination Runways

ID Width Length Bearing (true) Bearing (mag) Surface Threshold Offset Overrun Length
10 148 ft / 45 m 7,464 ft / 2,275 m 81.43° 95.75° Asphalt 0 ft / 0 m 151 ft / 46 m
28 148 ft / 45 m 7,464 ft / 2,275 m 261.44° 275.76° Asphalt 397 ft / 121 m 0 ft / 0 m

Popular Alternatives